Terminal Aerodrome Forecast
Issued by NWS

Home | Current Version | Previous Version | Text Only | Print | Product List | Glossary On
Versions: 1 2 3 4 5 6 7 8 9 10 11 12 13
000
FTAK31 PANC 182010 AAA
TAFAAQ
TAF AMD
PAAQ 182010Z 1820/1918 12015KT P6SM VCSH OVC090
     FM182200 15016G26KT P6SM VCSH BKN070
     FM190600 14010KT P6SM SCT120
     FM190900 36005KT P6SM SCT200=

USA.gov is the U.S. government's official web portal to all federal, state and local government web resources and services.